Flight Track Log - Related Links

Times and Time Zones

All times are in EST time to prevent confusion due to time zone crossing. See the N865JM flight status page for this flight to view local times or setup timezone preferences in your user account.

Time Position Orientation Groundspeed Altitude Reporting Facility
EST Latitude Longitude Course Direction KTS MPH feet Rate Location/Type
Wed 02:27:48 PM 39.8667 -75.2833 237° Southwest 197 227 1,000  Level Philadelphia TRACON
Wed 02:28:31 PM 39.8500 -75.3167 237° Southwest 210 242 3,300 3,412 Climbing Philadelphia TRACON
Wed 02:29:30 PM 39.8500 -75.4000 270° West 234 269 6,800 3,524 Climbing Philadelphia TRACON
Wed 02:30:37 PM 39.9167 -75.4500 330° Northwest 272 313 10,700 1,984 Climbing Philadelphia TRACON
Wed 02:31:37 PM 40.0000 -75.4833 343° North 341 392 11,000 158 Climbing Philadelphia TRACON
Wed 02:32:31 PM 40.0833 -75.5167 343° North 348 400 11,000  Level Philadelphia TRACON
Wed 02:33:07 PM 40.1322 -75.5303 348° North 364 419 11,000 563 Level New York Center
Wed 02:34:07 PM 40.2222 -75.5689 342° North 351 404 11,900 900 Climbing New York Center
Wed 02:35:07 PM 40.2756 -75.6433 313° West 322 371 12,800 545 Climbing New York Center
Wed 02:36:08 PM 40.3344 -75.7319 311° West 317 365 13,000 100 Climbing New York Center
Wed 02:37:07 PM 40.4031 -75.8322 312° West 329 379 13,000 -151 Level New York Center
Wed 02:38:07 PM 40.4617 -75.9239 310° West 342 394 12,700 -450 Descending New York Center
Wed 02:39:07 PM 40.5242 -76.0158 312° West 342 394 12,100 -800 Descending New York Center
Wed 02:40:07 PM 40.5828 -76.1078 310° West 337 388 11,100 -1,000 Descending New York Center
Wed 02:41:07 PM 40.6431 -76.2000 311° West 337 388 10,100 -600 Descending New York Center
Wed 02:42:07 PM 40.7117 -76.2467 333° Northwest 313 360 9,900 -100 Descending New York Center
Wed 02:43:07 PM 40.8078 -76.2433 North 321 369 9,900 -150 Level New York Center
Wed 02:44:07 PM 40.8814 -76.3206 322° Northwest 306 352 9,600 -450 Descending New York Center
Wed 02:45:07 PM 40.9297 -76.3986 309° West 290 334 9,000 -500 Descending New York Center
Wed 02:46:07 PM 40.9664 -76.4567 310° West 252 290 8,600 -800 Descending New York Center
Wed 02:47:07 PM 41.0106 -76.5347 307° West 240 276 7,400 -1,100 Descending New York Center
Wed 02:48:07 PM 41.0472 -76.5956 309° West 224 258 6,400 -1,200 Descending New York Center
Wed 02:49:07 PM 41.0861 -76.6539 312° West 207 238 5,000 -1,050 Descending New York Center
Wed 02:50:07 PM 41.1228 -76.7094 311° West 213 245 4,300 -433 Descending New York Center
Wed 02:52:07 PM 41.2269 -76.7544 342° North 195 224 3,700 -467 Descending New York Center
Wed 02:53:07 PM 41.2519 -76.7953 309° West 162 186 2,900 -800 Descending New York Center
Wed 02:54:07 PM 41.2536 -76.8453 273° West 138 159 2,100 -800 Descending New York Center
Wed 02:56:00 PM 41.2333 -76.9167 315° West  Level FlightAware Approximate

Login

Don't have an account? Register now (free) for customized features, flight alerts, and more!